Skip Navigation LinksHome page > Weather > Current weather Skip Navigation Links

Current Weather

Montgomery Field, San Diego

For information only: do not use for flight planning or navigation.
Latest weather
Observation time Thursday, January 27, 2022 9:53 PM PST
Local time Thursday, January 27, 2022 10:24 PM PST
Flight conditions Visual Meteorological Conditions
Winds
Wind speed calm
Visibility 10 mi.
Sky condition
Ceiling unlimited
Sky clear
Temperature 51°F
Dewpoint 37°F
Altimeter 30.20 in.Hg
Pressure change last 3 hours-0.03 in.Hg
Pressure rising more slowly
Derived measurements
Relative humidity 58%
Density altitude -306 ft.
Sea-level pressure 30.19 in.Hg
Climate data
Temperature minimum, last 6 hours 49°F
Temperature maximum, last 6 hours 68°F
Remarks
Fully automated report.
Automated weather observing station with precipitation discriminator.
METAR KMYF 280553Z AUTO 00000KT 10SM CLR 11/03 A3020 RMK AO2 SLP223 T01060028 10200 20094 51009

Settings

Location code

InnerDrive.Weather 4.0.6770.0 Release CLR 4.0.30319.42000
Copyright ©2018 Inner Drive Technology. All rights reserved. Portions Copyright ©1986-2018 David Braverman.

Find weather

Site navigation


Skip Navigation Links

Place info

Page info

PayPal - The safer, easier way to pay online!

Return home.

Copyright ©2022 Inner Drive Technology. Purveyors of fine, hand-crafted computer software. Page printed 2022-01-28T06:24:35 UTC.